Latest Coastal Weather Observations for Middle Percy Island

IDQ60701

Issued at 7:35 pm EST Thursday 18 December 2014 (issued every 10 minutes, with the page automatically refreshed every 10 minutes)

About coastal observations | Map of coastal stations | Coastal observations for QLD | Marine services | Other Formats
Station Details ID: 200001 Name: MIDDLE PERCY ISLAND Lat: -21.66 Lon: 150.27 Height: 208.7 m
Data from the previous 72 hours. | See also: Recent months at Middle Percy Island
Date/Time
EST
Temp

°C
Wind Pressure Rain
since 9am
mm
Weather Cloud Vis
km
Sea
Height
m
Swell
Dir
 
Speed
knots
Gust
knots
hPa Trend Height
m
Period
s
Dir
18/07:30pm 24.9 N 15 21 1010.5 - 0.0 - - - - - - -
18/07:00pm 24.9 N 14 21 1010.3 - 0.0 - - - - - - -
18/06:30pm 25.0 N 15 20 1009.9 - 0.0 - - - - - - -
18/06:00pm 25.5 N 11 16 1010.0 - 0.0 - - - - - - -
18/05:30pm 26.1 N 10 17 1009.8 - 0.0 - - - - - - -
18/05:00pm 26.4 N 12 18 1009.2 - 0.0 - - - - - - -
18/04:30pm 26.7 N 12 18 1009.0 - 0.0 - - - - - - -
18/04:00pm 26.8 N 14 20 1008.7 - 0.0 - - - - - - -
18/03:30pm 27.1 N 14 21 1009.1 - 0.0 - - - - - - -
18/03:00pm 27.0 N 15 20 1009.4 - 0.0 - - - - - - -
18/02:30pm 27.9 N 13 18 1010.2 - 0.0 - - - - - - -
18/02:00pm 28.2 N 14 21 1010.3 - 0.0 - - - - - - -
18/01:30pm 27.2 N 17 21 1010.4 - 0.0 - - - - - - -
18/01:00pm 27.7 N 14 21 1010.8 - 0.0 - - - - - - -
18/12:30pm 27.4 N 16 20 1010.8 - 0.0 - - - - - - -
18/12:00pm 27.3 N 16 22 1010.9 - 0.0 - - - - - - -
18/11:30am 28.3 N 13 20 1011.8 - 0.0 - - - - - - -
18/11:00am 27.4 N 16 21 1012.0 - 0.0 - - - - - - -
18/10:30am 27.6 N 14 20 1012.6 - 0.0 - - - - - - -
18/10:00am 27.3 N 16 23 1012.2 - 0.0 - - - - - - -
18/09:30am 27.2 N 14 21 1012.6 - 0.0 - - - - - - -
18/09:00am 26.7 N 13 17 1012.6 - 0.0 - - - - - - -
18/08:30am 26.9 N 11 17 1012.5 - 0.0 - - - - - - -
18/08:00am 27.4 N 9 15 1012.4 - 0.0 - - - - - - -
18/07:30am 26.3 N 9 14 1012.3 - 0.0 - - - - - - -
18/07:00am 26.2 N 10 17 1012.2 - 0.0 - - - - - - -
18/06:30am 25.4 N 12 19 1011.6 - 0.0 - - - - - - -
18/06:00am 25.0 N 11 17 1011.2 - 0.0 - - - - - - -
18/05:30am 24.6 N 9 13 1010.9 - 0.0 - - - - - - -
18/05:00am 24.4 N 10 13 1010.5 - 0.0 - - - - - - -
18/04:30am 24.5 N 11 15 1010.0 - 0.0 - - - - - - -
18/04:00am 24.6 N 14 23 1009.4 - 0.0 - - - - - - -
18/03:30am 24.5 N 13 20 1009.3 - 0.0 - - - - - - -
18/03:00am 24.7 N 15 20 1008.8 - 0.0 - - - - - - -
18/02:30am 24.6 N 15 20 1008.8 - 0.0 - - - - - - -
18/02:00am 24.7 N 14 20 1009.2 - 0.0 - - - - - - -
18/01:30am 24.7 N 12 18 1009.4 - 0.0 - - - - - - -
18/01:00am 24.6 N 12 18 1009.5 - 0.0 - - - - - - -
18/12:30am 24.9 N 14 20 1009.4 - 0.0 - - - - - - -
18/12:00am 24.8 N 13 20 1009.4 - 0.0 - - - - - - -
 
Date/Time
EST
Temp

°C
Wind Pressure Rain
since 9am
mm
Weather Cloud Vis
km
Sea
Height
m
Swell
Dir
 
Speed
knots
Gust
knots
hPa Trend Height
m
Period
s
Dir
17/11:30pm 24.9 N 12 18 1009.8 - 0.0 - - - - - - -
17/11:00pm 25.0 N 14 20 1009.6 - 0.0 - - - - - - -
17/10:30pm 24.9 N 14 21 1009.4 - 0.0 - - - - - - -
17/10:00pm 25.0 N 14 19 1009.6 - 0.0 - - - - - - -
17/09:30pm 25.0 N 15 23 1009.1 - 0.0 - - - - - - -
17/09:00pm 25.1 N 16 23 1008.8 - 0.0 - - - - - - -
17/08:30pm 25.1 N 17 23 1008.7 - 0.0 - - - - - - -
17/08:00pm 25.2 N 16 21 1008.5 - 0.0 - - - - - - -
17/07:30pm 25.2 N 15 22 1008.4 - 0.0 - - - - - - -
17/07:00pm 25.1 N 15 19 1008.3 - 0.0 - - - - - - -
17/06:30pm 25.2 N 13 18 1008.3 - 0.0 - - - - - - -
17/06:00pm 25.6 N 13 18 1007.9 - 0.0 - - - - - - -
17/05:30pm 26.2 N 13 20 1007.6 - 0.0 - - - - - - -
17/05:00pm 26.5 N 13 18 1007.2 - 0.0 - - - - - - -
17/04:30pm 26.8 NNW 12 17 1007.1 - 0.0 - - - - - - -
17/04:00pm 27.0 N 15 19 1007.1 - 0.0 - - - - - - -
17/03:30pm 27.3 NNW 13 19 1007.2 - 0.0 - - - - - - -
17/03:00pm 27.8 NNW 14 18 1007.5 - 0.0 - - - - - - -
17/02:30pm 27.8 NNW 13 19 1007.7 - 0.0 - - - - - - -
17/02:00pm 27.7 NNW 14 21 1008.0 - 0.0 - - - - - - -
17/01:30pm 27.7 NNW 13 20 1008.1 - 0.0 - - - - - - -
17/01:00pm 27.8 NNW 14 20 1008.3 - 0.0 - - - - - - -
17/12:30pm 28.3 NNW 14 19 1008.2 - 0.0 - - - - - - -
17/12:00pm 27.9 NNW 14 20 1008.5 - 0.0 - - - - - - -
17/11:44am 28.3 NNW 15 25 1008.4 - 0.0 - - - - - - -
17/11:30am 28.7 NNW 15 24 1008.8 - 0.0 - - - - - - -
17/11:00am 27.9 NNW 16 21 1009.2 - 0.0 - - - - - - -
17/10:30am 28.4 NNW 14 19 1009.4 - 0.0 - - - - - - -
17/10:00am 28.4 NNW 13 21 1009.4 - 0.0 - - - - - - -
17/09:30am 27.0 N 18 24 1009.2 - 0.0 - - - - - - -
17/09:00am 27.3 NNW 15 21 1009.2 - 0.0 - - - - - - -
17/08:30am 26.6 N 16 23 1009.1 - 0.0 - - - - - - -
17/08:13am 26.5 NNW 15 25 1009.2 - 0.0 - - - - - - -
17/08:00am 26.6 NNW 14 19 1009.4 - 0.0 - - - - - - -
17/07:30am 26.3 NNW 13 18 1009.5 - 0.0 - - - - - - -
17/07:00am 25.7 NNW 14 21 1009.2 - 0.0 - - - - - - -
17/06:30am 25.3 NNW 14 18 1009.0 - 0.0 - - - - - - -
17/06:00am 24.7 NNW 14 20 1008.7 - 0.0 - - - - - - -
17/05:30am 24.2 NNW 15 19 1008.4 - 0.0 - - - - - - -
17/05:00am 24.2 NNW 14 19 1008.0 - 0.0 - - - - - - -
17/04:30am 24.0 NNW 13 17 1007.8 - 0.0 - - - - - - -
17/04:00am 24.1 NNW 14 20 1007.2 - 0.0 - - - - - - -
17/03:30am 24.3 NNW 15 20 1007.0 - 0.0 - - - - - - -
17/03:00am 24.3 NNW 15 21 1006.8 - 0.0 - - - - - - -
17/02:30am 24.3 NNW 15 20 1007.0 - 0.0 - - - - - - -
17/02:00am 24.3 NNW 15 20 1007.3 - 0.0 - - - - - - -
17/01:30am 24.3 NNW 15 21 1007.4 - 0.0 - - - - - - -
17/01:00am 24.3 NNW 16 22 1007.9 - 0.0 - - - - - - -
17/12:30am 24.4 NNW 15 20 1008.0 - 0.0 - - - - - - -
17/12:00am 24.3 NNW 14 22 1008.4 - 0.0 - - - - - - -
 
Date/Time
EST
Temp

°C
Wind Pressure Rain
since 9am
mm
Weather Cloud Vis
km
Sea
Height
m
Swell
Dir
 
Speed
knots
Gust
knots
hPa Trend Height
m
Period
s
Dir
16/11:30pm 24.4 NNW 16 22 1008.8 - 0.0 - - - - - - -
16/11:00pm 24.6 NNW 17 23 1008.9 - 0.0 - - - - - - -
16/10:30pm 24.6 NNW 15 22 1009.1 - 0.0 - - - - - - -
16/10:00pm 24.6 NNW 17 23 1009.1 - 0.0 - - - - - - -
16/09:30pm 24.7 N 18 24 1008.7 - 0.0 - - - - - - -
16/09:00pm 24.6 N 17 22 1008.6 - 0.0 - - - - - - -
16/08:30pm 24.7 N 17 23 1008.6 - 0.0 - - - - - - -
16/08:00pm 24.7 N 17 22 1008.4 - 0.0 - - - - - - -
16/07:30pm 24.6 N 17 23 1008.2 - 0.0 - - - - - - -
16/07:00pm 24.7 N 16 22 1007.9 - 0.0 - - - - - - -
16/06:30pm 24.9 N 16 20 1007.6 - 0.0 - - - - - - -
16/06:00pm 25.2 N 14 20 1007.5 - 0.0 - - - - - - -
16/05:30pm 25.6 N 15 20 1007.5 - 0.0 - - - - - - -
16/05:00pm 26.1 N 14 19 1007.5 - 0.0 - - - - - - -
16/04:30pm 26.4 N 14 18 1007.6 - 0.0 - - - - - - -
16/04:00pm 26.6 N 14 17 1007.7 - 0.0 - - - - - - -
16/03:30pm 26.5 N 13 16 1007.8 - 0.0 - - - - - - -
16/03:00pm 27.2 N 12 17 1008.1 - 0.0 - - - - - - -
16/02:30pm 27.0 N 10 15 1008.5 - 0.0 - - - - - - -
16/02:00pm 27.3 N 11 15 1009.0 - 0.0 - - - - - - -
16/01:30pm 27.3 N 9 13 1009.5 - 0.0 - - - - - - -
16/01:00pm 27.7 N 9 14 1009.7 - 0.0 - - - - - - -
16/12:30pm 26.9 N 10 16 1010.1 - 0.0 - - - - - - -
16/12:00pm 26.9 N 10 14 1010.3 - 0.0 - - - - - - -
16/11:30am 27.4 N 7 11 1010.7 - 0.0 - - - - - - -
16/11:00am 26.6 NNW 7 11 1011.2 - 0.0 - - - - - - -
16/10:30am 27.5 NW 6 9 1011.5 - 0.0 - - - - - - -
16/10:00am 26.5 NW 5 8 1011.7 - 0.0 - - - - - - -
16/09:30am 26.7 NW 4 10 1011.7 - 0.0 - - - - - - -
16/09:00am 26.1 NW 7 11 1011.5 - 0.0 - - - - - - -
16/08:30am 26.2 NW 9 13 1011.2 - 0.0 - - - - - - -
16/08:00am 25.7 NNW 9 13 1011.3 - 0.0 - - - - - - -
16/07:30am 25.3 NW 9 13 1011.3 - 0.0 - - - - - - -
16/07:00am 25.1 NNW 7 11 1011.1 - 0.0 - - - - - - -
16/06:30am 24.3 NNW 6 8 1010.8 - 0.0 - - - - - - -
16/06:00am 23.5 NNW 8 10 1010.3 - 0.0 - - - - - - -
16/05:30am 22.7 NNW 7 10 1009.8 - 0.0 - - - - - - -
16/05:00am 22.4 NNW 7 10 1009.3 - 0.0 - - - - - - -
16/04:30am 22.5 NNW 9 11 1009.0 - 0.0 - - - - - - -
16/04:00am 22.5 N 7 11 1009.0 - 0.0 - - - - - - -
16/03:30am 22.5 N 6 8 1009.1 - 0.0 - - - - - - -
16/03:00am 22.6 NNW 6 8 1009.3 - 0.0 - - - - - - -
16/02:30am 22.3 N 6 8 1009.4 - 0.0 - - - - - - -
16/02:00am 22.6 NNW 7 8 1009.4 - 0.0 - - - - - - -
16/01:30am 22.7 NNW 7 10 1009.7 - 0.0 - - - - - - -
16/01:00am 22.9 NNW 7 9 1010.2 - 0.0 - - - - - - -
16/12:30am 23.0 NNW 7 10 1010.6 - 0.0 - - - - - - -
16/12:00am 22.9 NNW 7 8 1011.2 - 0.0 - - - - - - -
 
Date/Time
EST
Temp

°C
Wind Pressure Rain
since 9am
mm
Weather Cloud Vis
km
Sea
Height
m
Swell
Dir
 
Speed
knots
Gust
knots
hPa Trend Height
m
Period
s
Dir
15/11:30pm 22.9 N 7 8 1011.2 - 0.0 - - - - - - -
15/11:00pm 22.6 N 6 7 1011.6 - 0.0 - - - - - - -
15/10:30pm 22.8 N 6 7 1011.7 - 0.0 - - - - - - -
15/10:00pm 23.0 N 6 7 1011.8 - 0.0 - - - - - - -
15/09:30pm 23.1 N 7 8 1011.7 - 0.0 - - - - - - -
15/09:00pm 23.3 N 6 8 1011.3 - 0.0 - - - - - - -
15/08:30pm 23.5 NNE 6 8 1011.2 - 0.0 - - - - - - -
15/08:00pm 23.6 NNE 7 9 1010.6 - 0.0 - - - - - - -

Other Formats:

Comma delimited format used in spreadsheet applications
http://www.bom.gov.au/fwo/IDQ60701/IDQ60701.94372.axf

JavaScript Object Notation format (JSON) in row-major order
http://www.bom.gov.au/fwo/IDQ60701/IDQ60701.94372.json